sensor_id;sensor_type;location;lat;lon;timestamp;pressure;altitude;pressure_sealevel;temperature;humidity
19286;BME280;9776;50.798;6.430;2022-10-04T00:00:47;100968.34;;;12.13;68.23
19286;BME280;9776;50.798;6.430;2022-10-04T00:03:18;100965.81;;;12.21;67.97
19286;BME280;9776;50.798;6.430;2022-10-04T00:05:51;100956.06;;;12.22;67.78
19286;BME280;9776;50.798;6.430;2022-10-04T00:08:25;100956.75;;;12.24;67.79
19286;BME280;9776;50.798;6.430;2022-10-04T00:11:04;100958.59;;;12.23;67.73
19286;BME280;9776;50.798;6.430;2022-10-04T00:13:33;100952.28;;;12.24;67.56
19286;BME280;9776;50.798;6.430;2022-10-04T00:16:01;100946.03;;;12.25;67.80
19286;BME280;9776;50.798;6.430;2022-10-04T00:18:30;100941.41;;;12.27;67.57
19286;BME280;9776;50.798;6.430;2022-10-04T00:21:05;100932.41;;;12.20;67.92
19286;BME280;9776;50.798;6.430;2022-10-04T00:23:46;100936.00;;;12.19;67.75
19286;BME280;9776;50.798;6.430;2022-10-04T00:29:29;100927.25;;;12.19;67.94
19286;BME280;9776;50.798;6.430;2022-10-04T00:32:24;100923.75;;;12.18;67.77
19286;BME280;9776;50.798;6.430;2022-10-04T00:34:52;100925.81;;;12.24;67.81
19286;BME280;9776;50.798;6.430;2022-10-04T00:37:22;100927.34;;;12.27;67.83
19286;BME280;9776;50.798;6.430;2022-10-04T00:40:02;100929.84;;;12.28;67.73
19286;BME280;9776;50.798;6.430;2022-10-04T00:42:36;100923.59;;;12.29;67.71
19286;BME280;9776;50.798;6.430;2022-10-04T00:45:12;100921.06;;;12.28;67.50
19286;BME280;9776;50.798;6.430;2022-10-04T00:50:53;100924.56;;;12.28;67.50
19286;BME280;9776;50.798;6.430;2022-10-04T00:53:40;100926.25;;;12.29;67.45
19286;BME280;9776;50.798;6.430;2022-10-04T00:56:10;100924.28;;;12.31;67.66
19286;BME280;9776;50.798;6.430;2022-10-04T00:58:48;100929.28;;;12.34;67.50
19286;BME280;9776;50.798;6.430;2022-10-04T01:01:18;100929.81;;;12.38;67.28
19286;BME280;9776;50.798;6.430;2022-10-04T01:03:48;100932.03;;;12.42;67.40
19286;BME280;9776;50.798;6.430;2022-10-04T01:06:18;100927.41;;;12.44;67.20
19286;BME280;9776;50.798;6.430;2022-10-04T01:08:51;100920.84;;;12.48;67.29
19286;BME280;9776;50.798;6.430;2022-10-04T01:11:20;100932.28;;;12.49;67.48
19286;BME280;9776;50.798;6.430;2022-10-04T01:16:18;100932.03;;;12.42;67.74
19286;BME280;9776;50.798;6.430;2022-10-04T01:18:46;100929.13;;;12.36;67.79
19286;BME280;9776;50.798;6.430;2022-10-04T01:21:24;100922.56;;;12.40;67.74
19286;BME280;9776;50.798;6.430;2022-10-04T01:24:18;100928.97;;;12.37;67.87
19286;BME280;9776;50.798;6.430;2022-10-04T01:26:46;100932.03;;;12.42;67.46
19286;BME280;9776;50.798;6.430;2022-10-04T01:29:15;100919.47;;;12.44;67.58
19286;BME280;9776;50.798;6.430;2022-10-04T01:31:44;100923.09;;;12.43;67.70
19286;BME280;9776;50.798;6.430;2022-10-04T01:34:14;100920.47;;;12.43;67.71
19286;BME280;9776;50.798;6.430;2022-10-04T01:36:41;100918.09;;;12.40;67.90
19286;BME280;9776;50.798;6.430;2022-10-04T01:39:13;100915.47;;;12.40;67.83
19286;BME280;9776;50.798;6.430;2022-10-04T01:41:45;100907.50;;;12.40;67.75
19286;BME280;9776;50.798;6.430;2022-10-04T01:44:20;100909.66;;;12.27;68.01
19286;BME280;9776;50.798;6.430;2022-10-04T01:46:49;100907.88;;;12.18;68.21
19286;BME280;9776;50.798;6.430;2022-10-04T01:49:19;100907.66;;;12.02;68.90
19286;BME280;9776;50.798;6.430;2022-10-04T01:51:52;100906.16;;;12.00;68.63
19286;BME280;9776;50.798;6.430;2022-10-04T01:54:30;100912.97;;;11.92;68.72
19286;BME280;9776;50.798;6.430;2022-10-04T01:57:01;100912.03;;;11.84;68.92
19286;BME280;9776;50.798;6.430;2022-10-04T01:59:33;100918.03;;;11.76;69.39
19286;BME280;9776;50.798;6.430;2022-10-04T02:02:07;100915.25;;;11.68;69.42
19286;BME280;9776;50.798;6.430;2022-10-04T02:04:37;100920.25;;;11.62;69.63
19286;BME280;9776;50.798;6.430;2022-10-04T02:07:10;100911.78;;;11.58;69.65
19286;BME280;9776;50.798;6.430;2022-10-04T02:09:42;100907.72;;;11.64;69.46
19286;BME280;9776;50.798;6.430;2022-10-04T02:12:13;100910.09;;;11.67;69.35
19286;BME280;9776;50.798;6.430;2022-10-04T02:14:45;100904.81;;;11.67;69.50
19286;BME280;9776;50.798;6.430;2022-10-04T02:17:18;100897.72;;;11.67;69.32
19286;BME280;9776;50.798;6.430;2022-10-04T02:19:46;100896.88;;;11.67;69.47
19286;BME280;9776;50.798;6.430;2022-10-04T02:22:14;100898.53;;;11.68;69.44
19286;BME280;9776;50.798;6.430;2022-10-04T02:24:44;100892.16;;;11.70;69.44
19286;BME280;9776;50.798;6.430;2022-10-04T02:27:12;100890.63;;;11.68;69.08
19286;BME280;9776;50.798;6.430;2022-10-04T02:29:39;100892.25;;;11.69;69.43
19286;BME280;9776;50.798;6.430;2022-10-04T02:32:07;100886.88;;;11.70;69.33
19286;BME280;9776;50.798;6.430;2022-10-04T02:34:52;100884.06;;;11.72;69.23
19286;BME280;9776;50.798;6.430;2022-10-04T02:37:21;100884.06;;;11.72;69.15
19286;BME280;9776;50.798;6.430;2022-10-04T02:39:52;100878.94;;;11.70;69.36
19286;BME280;9776;50.798;6.430;2022-10-04T02:42:25;100875.59;;;11.68;69.18
19286;BME280;9776;50.798;6.430;2022-10-04T02:44:58;100866.13;;;11.66;69.10
19286;BME280;9776;50.798;6.430;2022-10-04T02:47:30;100861.41;;;11.60;69.51
19286;BME280;9776;50.798;6.430;2022-10-04T02:50:04;100861.41;;;11.60;69.53
19286;BME280;9776;50.798;6.430;2022-10-04T02:52:37;100866.16;;;11.56;69.23
19286;BME280;9776;50.798;6.430;2022-10-04T02:55:12;100867.84;;;11.48;69.48
19286;BME280;9776;50.798;6.430;2022-10-04T02:57:42;100862.16;;;11.43;69.58
19286;BME280;9776;50.798;6.430;2022-10-04T03:00:16;100852.31;;;11.25;70.12
19286;BME280;9776;50.798;6.430;2022-10-04T03:03:08;100856.59;;;11.17;70.15
19286;BME280;9776;50.798;6.430;2022-10-04T03:05:37;100852.69;;;11.11;70.53
19286;BME280;9776;50.798;6.430;2022-10-04T03:08:05;100846.72;;;11.09;70.54
19286;BME280;9776;50.798;6.430;2022-10-04T03:10:34;100848.97;;;11.14;70.30
19286;BME280;9776;50.798;6.430;2022-10-04T03:13:01;100841.84;;;11.14;70.04
19286;BME280;9776;50.798;6.430;2022-10-04T03:15:28;100841.03;;;11.14;70.04
19286;BME280;9776;50.798;6.430;2022-10-04T03:17:55;100832.13;;;11.15;70.09
19286;BME280;9776;50.798;6.430;2022-10-04T03:20:22;100832.13;;;11.15;69.80
19286;BME280;9776;50.798;6.430;2022-10-04T03:22:52;100827.97;;;11.12;70.01
19286;BME280;9776;50.798;6.430;2022-10-04T03:25:22;100822.97;;;11.09;70.10
19286;BME280;9776;50.798;6.430;2022-10-04T03:27:53;100814.34;;;11.07;69.88
19286;BME280;9776;50.798;6.430;2022-10-04T03:30:24;100812.09;;;11.03;69.94
19286;BME280;9776;50.798;6.430;2022-10-04T03:32:51;100806.03;;;11.02;69.93
19286;BME280;9776;50.798;6.430;2022-10-04T03:35:26;100801.00;;;10.99;69.82
19286;BME280;9776;50.798;6.430;2022-10-04T03:37:55;100805.75;;;10.96;69.79
19286;BME280;9776;50.798;6.430;2022-10-04T03:40:23;100797.94;;;10.94;69.81
19286;BME280;9776;50.798;6.430;2022-10-04T03:42:54;100795.16;;;10.86;69.92
19286;BME280;9776;50.798;6.430;2022-10-04T03:45:22;100796.28;;;10.83;70.32
19286;BME280;9776;50.798;6.430;2022-10-04T03:47:50;100800.44;;;10.86;70.14
19286;BME280;9776;50.798;6.430;2022-10-04T03:50:20;100799.88;;;10.82;69.97
19286;BME280;9776;50.798;6.430;2022-10-04T03:52:51;100803.53;;;10.81;70.11
19286;BME280;9776;50.798;6.430;2022-10-04T03:55:19;100803.53;;;10.81;69.97
19286;BME280;9776;50.798;6.430;2022-10-04T03:57:47;100809.66;;;10.82;70.20
19286;BME280;9776;50.798;6.430;2022-10-04T04:00:17;100809.34;;;10.85;70.20
19286;BME280;9776;50.798;6.430;2022-10-04T04:02:47;100811.00;;;10.86;69.94
19286;BME280;9776;50.798;6.430;2022-10-04T04:05:19;100807.53;;;10.86;70.14
19286;BME280;9776;50.798;6.430;2022-10-04T04:07:56;100810.16;;;10.86;69.97
19286;BME280;9776;50.798;6.430;2022-10-04T04:10:28;100809.34;;;10.85;70.13
19286;BME280;9776;50.798;6.430;2022-10-04T04:12:59;100810.16;;;10.86;69.90
19286;BME280;9776;50.798;6.430;2022-10-04T04:15:30;100803.38;;;10.73;70.42
19286;BME280;9776;50.798;6.430;2022-10-04T04:18:00;100803.50;;;10.72;70.49
19286;BME280;9776;50.798;6.430;2022-10-04T04:20:31;100801.84;;;10.71;70.28
19286;BME280;9776;50.798;6.430;2022-10-04T04:23:01;100800.88;;;10.72;70.33
19286;BME280;9776;50.798;6.430;2022-10-04T04:25:31;100803.50;;;10.72;70.38
19286;BME280;9776;50.798;6.430;2022-10-04T04:28:04;100793.22;;;10.69;70.11
19286;BME280;9776;50.798;6.430;2022-10-04T04:30:36;100797.94;;;10.65;70.05
19286;BME280;9776;50.798;6.430;2022-10-04T04:33:08;100803.25;;;10.56;70.27
19286;BME280;9776;50.798;6.430;2022-10-04T04:35:37;100798.34;;;10.51;70.39
19286;BME280;9776;50.798;6.430;2022-10-04T04:38:14;100795.97;;;10.48;70.21
19286;BME280;9776;50.798;6.430;2022-10-04T04:40:43;100790.44;;;10.42;70.33
19286;BME280;9776;50.798;6.430;2022-10-04T04:43:16;100793.78;;;10.44;70.21
19286;BME280;9776;50.798;6.430;2022-10-04T04:45:46;100799.31;;;10.41;70.54
19286;BME280;9776;50.798;6.430;2022-10-04T04:48:15;100797.91;;;10.37;70.43
19286;BME280;9776;50.798;6.430;2022-10-04T04:50:47;100801.28;;;10.39;70.41
19286;BME280;9776;50.798;6.430;2022-10-04T04:53:20;100791.69;;;10.38;70.40
19286;BME280;9776;50.798;6.430;2022-10-04T04:55:49;100787.63;;;10.34;70.25
19286;BME280;9776;50.798;6.430;2022-10-04T04:58:21;100790.00;;;10.27;70.24
19286;BME280;9776;50.798;6.430;2022-10-04T05:00:54;100785.38;;;10.19;70.52
19286;BME280;9776;50.798;6.430;2022-10-04T05:03:21;100780.53;;;10.15;70.91
19286;BME280;9776;50.798;6.430;2022-10-04T05:05:48;100780.13;;;10.19;70.53
19286;BME280;9776;50.798;6.430;2022-10-04T05:08:18;100780.69;;;10.23;70.77
19286;BME280;9776;50.798;6.430;2022-10-04T05:10:49;100770.56;;;10.18;70.55
19286;BME280;9776;50.798;6.430;2022-10-04T05:13:20;100772.19;;;10.19;70.61
19286;BME280;9776;50.798;6.430;2022-10-04T05:15:53;100771.06;;;10.12;70.72
19286;BME280;9776;50.798;6.430;2022-10-04T05:18:26;100769.38;;;10.11;70.71
19286;BME280;9776;50.798;6.430;2022-10-04T05:20:56;100765.53;;;10.15;70.63
19286;BME280;9776;50.798;6.430;2022-10-04T05:23:23;100760.47;;;10.03;70.80
19286;BME280;9776;50.798;6.430;2022-10-04T05:25:50;100753.94;;;9.97;71.06
19286;BME280;9776;50.798;6.430;2022-10-04T05:28:17;100757.41;;;9.98;71.01
19286;BME280;9776;50.798;6.430;2022-10-04T05:30:57;100764.22;;;10.00;71.00
19286;BME280;9776;50.798;6.430;2022-10-04T05:33:36;100760.31;;;10.04;70.87
19286;BME280;9776;50.798;6.430;2022-10-04T05:36:34;100753.13;;;10.06;70.63
19286;BME280;9776;50.798;6.430;2022-10-04T05:39:10;100761.34;;;10.13;70.63
19286;BME280;9776;50.798;6.430;2022-10-04T05:41:45;100759.00;;;10.19;70.46
19286;BME280;9776;50.798;6.430;2022-10-04T05:44:23;100765.00;;;10.21;70.62
19286;BME280;9776;50.798;6.430;2022-10-04T05:46:56;100749.13;;;10.12;70.72
19286;BME280;9776;50.798;6.430;2022-10-04T05:49:25;100745.91;;;10.08;70.97
19286;BME280;9776;50.798;6.430;2022-10-04T05:51:55;100747.31;;;10.12;70.78
19286;BME280;9776;50.798;6.430;2022-10-04T05:54:26;100751.63;;;10.13;70.84
19286;BME280;9776;50.798;6.430;2022-10-04T05:57:25;100754.28;;;10.13;70.56
19286;BME280;9776;50.798;6.430;2022-10-04T06:00:02;100753.72;;;10.19;70.74
19286;BME280;9776;50.798;6.430;2022-10-04T06:05:40;100761.25;;;10.24;70.65
19286;BME280;9776;50.798;6.430;2022-10-04T06:08:16;100754.56;;;10.20;70.92
19286;BME280;9776;50.798;6.430;2022-10-04T06:10:52;100753.69;;;10.10;71.16
19286;BME280;9776;50.798;6.430;2022-10-04T06:13:44;100759.06;;;9.99;71.63
19286;BME280;9776;50.798;6.430;2022-10-04T06:16:28;100766.06;;;10.09;71.39
19286;BME280;9776;50.798;6.430;2022-10-04T06:19:20;100761.78;;;10.18;71.07
19286;BME280;9776;50.798;6.430;2022-10-04T06:22:07;100765.28;;;10.28;70.74
19286;BME280;9776;50.798;6.430;2022-10-04T06:24:40;100761.97;;;10.36;70.54
19286;BME280;9776;50.798;6.430;2022-10-04T06:27:11;100764.88;;;10.42;70.61
19286;BME280;9776;50.798;6.430;2022-10-04T06:29:43;100762.50;;;10.49;70.37
19286;BME280;9776;50.798;6.430;2022-10-04T06:32:33;100758.63;;;10.53;70.21
19286;BME280;9776;50.798;6.430;2022-10-04T06:35:19;100754.31;;;10.42;70.58
19286;BME280;9776;50.798;6.430;2022-10-04T06:41:19;100750.56;;;10.54;70.58
19286;BME280;9776;50.798;6.430;2022-10-04T06:44:01;100750.56;;;10.64;70.41
19286;BME280;9776;50.798;6.430;2022-10-04T06:46:39;100754.59;;;10.68;70.26
19286;BME280;9776;50.798;6.430;2022-10-04T06:49:33;100747.09;;;10.73;70.22
19286;BME280;9776;50.798;6.430;2022-10-04T06:52:22;100742.34;;;10.86;70.08
19286;BME280;9776;50.798;6.430;2022-10-04T06:55:11;100749.00;;;11.00;69.69
19286;BME280;9776;50.798;6.430;2022-10-04T07:00:39;100751.44;;;11.30;69.63
19286;BME280;9776;50.798;6.430;2022-10-04T07:03:11;100761.41;;;11.46;69.33
19286;BME280;9776;50.798;6.430;2022-10-04T07:05:44;100766.53;;;11.57;69.38
19286;BME280;9776;50.798;6.430;2022-10-04T07:08:18;100763.00;;;11.66;68.94
19286;BME280;9776;50.798;6.430;2022-10-04T07:10:58;100767.31;;;11.67;69.17
19286;BME280;9776;50.798;6.430;2022-10-04T07:13:33;100770.94;;;11.66;69.25
19286;BME280;9776;50.798;6.430;2022-10-04T07:16:07;100765.78;;;11.64;69.53
19286;BME280;9776;50.798;6.430;2022-10-04T07:18:58;100772.34;;;11.70;69.58
19286;BME280;9776;50.798;6.430;2022-10-04T07:21:35;100771.06;;;11.74;69.54
19286;BME280;9776;50.798;6.430;2022-10-04T07:24:10;100768.81;;;11.79;69.64
19286;BME280;9776;50.798;6.430;2022-10-04T07:26:44;100764.66;;;11.76;69.78
19286;BME280;9776;50.798;6.430;2022-10-04T07:29:16;100770.78;;;11.77;69.75
19286;BME280;9776;50.798;6.430;2022-10-04T07:31:50;100773.16;;;11.70;70.07
19286;BME280;9776;50.798;6.430;2022-10-04T07:34:22;100771.75;;;11.76;69.95
19286;BME280;9776;50.798;6.430;2022-10-04T07:36:53;100767.44;;;11.75;70.32
19286;BME280;9776;50.798;6.430;2022-10-04T07:39:25;100772.31;;;11.79;70.00
19286;BME280;9776;50.798;6.430;2022-10-04T07:41:55;100773.91;;;11.90;69.76
19286;BME280;9776;50.798;6.430;2022-10-04T07:44:33;100772.34;;;11.97;69.69
19286;BME280;9776;50.798;6.430;2022-10-04T07:47:04;100766.69;;;12.10;69.90
19286;BME280;9776;50.798;6.430;2022-10-04T07:49:38;100770.25;;;12.18;69.64
19286;BME280;9776;50.798;6.430;2022-10-04T07:52:31;100769.38;;;12.27;69.26
19286;BME280;9776;50.798;6.430;2022-10-04T07:55:15;100774.84;;;12.43;69.10
19286;BME280;9776;50.798;6.430;2022-10-04T07:57:49;100774.25;;;12.49;68.88
19286;BME280;9776;50.798;6.430;2022-10-04T08:00:21;100764.69;;;12.57;68.84
19286;BME280;9776;50.798;6.430;2022-10-04T08:05:40;100766.78;;;13.06;68.22
19286;BME280;9776;50.798;6.430;2022-10-04T08:08:28;100768.09;;;13.28;67.83
19286;BME280;9776;50.798;6.430;2022-10-04T08:11:12;100766.25;;;13.54;67.08
19286;BME280;9776;50.798;6.430;2022-10-04T08:13:50;100766.91;;;13.82;66.91
19286;BME280;9776;50.798;6.430;2022-10-04T08:16:31;100758.38;;;14.04;66.12
19286;BME280;9776;50.798;6.430;2022-10-04T08:19:11;100757.75;;;14.18;65.67
19286;BME280;9776;50.798;6.430;2022-10-04T08:21:48;100753.94;;;14.29;65.97
19286;BME280;9776;50.798;6.430;2022-10-04T08:24:29;100758.16;;;14.39;65.42
19286;BME280;9776;50.798;6.430;2022-10-04T08:30:07;100753.53;;;14.65;65.40
19286;BME280;9776;50.798;6.430;2022-10-04T08:32:48;100749.66;;;15.32;63.91
19286;BME280;9776;50.798;6.430;2022-10-04T08:35:34;100753.63;;;16.98;59.88
19286;BME280;9776;50.798;6.430;2022-10-04T08:38:37;100744.47;;;19.31;54.61
19286;BME280;9776;50.798;6.430;2022-10-04T08:41:35;100742.56;;;21.39;49.86
19286;BME280;9776;50.798;6.430;2022-10-04T08:44:33;100753.63;;;23.20;46.25
19286;BME280;9776;50.798;6.430;2022-10-04T08:50:54;100748.72;;;25.55;41.56
19286;BME280;9776;50.798;6.430;2022-10-04T08:53:51;100753.16;;;26.41;39.70
19286;BME280;9776;50.798;6.430;2022-10-04T08:56:40;100750.34;;;27.31;37.62
19286;BME280;9776;50.798;6.430;2022-10-04T08:59:25;100743.06;;;27.91;36.73
19286;BME280;9776;50.798;6.430;2022-10-04T09:02:30;100747.78;;;28.23;35.59
19286;BME280;9776;50.798;6.430;2022-10-04T09:05:15;100740.59;;;28.60;34.93
19286;BME280;9776;50.798;6.430;2022-10-04T09:11:00;100740.72;;;29.07;33.84
19286;BME280;9776;50.798;6.430;2022-10-04T09:13:44;100733.19;;;28.82;33.71
19286;BME280;9776;50.798;6.430;2022-10-04T09:16:15;100734.22;;;28.23;34.20
19286;BME280;9776;50.798;6.430;2022-10-04T09:18:51;100724.00;;;27.43;35.05
19286;BME280;9776;50.798;6.430;2022-10-04T09:21:27;100720.25;;;26.77;35.84
19286;BME280;9776;50.798;6.430;2022-10-04T09:24:19;100718.25;;;26.39;36.40
19286;BME280;9776;50.798;6.430;2022-10-04T09:26:55;100723.94;;;25.86;36.93
19286;BME280;9776;50.798;6.430;2022-10-04T09:29:40;100714.88;;;25.06;38.09
19286;BME280;9776;50.798;6.430;2022-10-04T09:32:39;100709.31;;;24.37;39.30
19286;BME280;9776;50.798;6.430;2022-10-04T09:35:28;100714.31;;;24.21;39.38
19286;BME280;9776;50.798;6.430;2022-10-04T09:38:24;100714.50;;;24.38;38.93
19286;BME280;9776;50.798;6.430;2022-10-04T09:41:09;100709.47;;;24.95;37.84
19286;BME280;9776;50.798;6.430;2022-10-04T09:44:04;100710.81;;;25.78;36.12
19286;BME280;9776;50.798;6.430;2022-10-04T09:46:57;100704.34;;;26.08;35.44
19286;BME280;9776;50.798;6.430;2022-10-04T09:49:43;100705.97;;;25.80;36.00
19286;BME280;9776;50.798;6.430;2022-10-04T09:52:28;100701.91;;;25.43;36.11
19286;BME280;9776;50.798;6.430;2022-10-04T09:55:08;100697.47;;;25.37;36.29
19286;BME280;9776;50.798;6.430;2022-10-04T09:57:57;100700.31;;;25.54;35.64
19286;BME280;9776;50.798;6.430;2022-10-04T10:00:34;100701.06;;;25.66;35.60
19286;BME280;9776;50.798;6.430;2022-10-04T10:06:47;100694.88;;;25.65;35.28
19286;BME280;9776;50.798;6.430;2022-10-04T10:09:23;100692.91;;;25.49;35.53
19286;BME280;9776;50.798;6.430;2022-10-04T10:12:33;100689.81;;;25.34;35.81
19286;BME280;9776;50.798;6.430;2022-10-04T10:15:27;100694.53;;;25.50;35.39
19286;BME280;9776;50.798;6.430;2022-10-04T10:18:06;100686.72;;;25.77;34.98
19286;BME280;9776;50.798;6.430;2022-10-04T10:20:59;100687.28;;;26.19;34.34
19286;BME280;9776;50.798;6.430;2022-10-04T10:23:54;100686.78;;;26.83;33.42
19286;BME280;9776;50.798;6.430;2022-10-04T10:26:39;100692.69;;;28.00;31.46
19286;BME280;9776;50.798;6.430;2022-10-04T10:32:36;100692.34;;;29.09;29.76
19286;BME280;9776;50.798;6.430;2022-10-04T10:35:24;100691.91;;;28.85;30.32
19286;BME280;9776;50.798;6.430;2022-10-04T10:38:13;100694.06;;;28.51;30.60
19286;BME280;9776;50.798;6.430;2022-10-04T10:40:57;100697.00;;;28.18;31.19
19286;BME280;9776;50.798;6.430;2022-10-04T10:43:42;100692.34;;;28.13;31.22
19286;BME280;9776;50.798;6.430;2022-10-04T10:46:27;100692.31;;;28.67;30.28
19286;BME280;9776;50.798;6.430;2022-10-04T10:49:15;100699.09;;;29.43;29.23
19286;BME280;9776;50.798;6.430;2022-10-04T10:52:15;100689.91;;;30.57;27.89
19286;BME280;9776;50.798;6.430;2022-10-04T10:55:15;100683.75;;;31.66;26.47
19286;BME280;9776;50.798;6.430;2022-10-04T10:58:06;100682.59;;;32.65;25.63
19286;BME280;9776;50.798;6.430;2022-10-04T11:00:48;100682.72;;;33.12;24.84
19286;BME280;9776;50.798;6.430;2022-10-04T11:06:36;100673.47;;;31.96;25.92
19286;BME280;9776;50.798;6.430;2022-10-04T11:09:31;100662.66;;;30.57;27.43
19286;BME280;9776;50.798;6.430;2022-10-04T11:15:38;100671.06;;;29.38;29.57
19286;BME280;9776;50.798;6.430;2022-10-04T11:18:48;100665.16;;;29.56;29.32
19286;BME280;9776;50.798;6.430;2022-10-04T11:21:52;100659.97;;;30.62;28.02
19286;BME280;9776;50.798;6.430;2022-10-04T11:24:52;100649.81;;;31.82;26.41
19286;BME280;9776;50.798;6.430;2022-10-04T11:27:40;100650.28;;;32.72;25.28
19286;BME280;9776;50.798;6.430;2022-10-04T11:30:17;100640.44;;;33.71;24.34
19286;BME280;9776;50.798;6.430;2022-10-04T11:36:34;100630.84;;;35.70;22.35
19286;BME280;9776;50.798;6.430;2022-10-04T11:39:37;100631.69;;;37.13;21.10
19286;BME280;9776;50.798;6.430;2022-10-04T11:42:15;100626.97;;;37.87;20.28
19286;BME280;9776;50.798;6.430;2022-10-04T11:45:04;100628.31;;;38.24;19.77
19286;BME280;9776;50.798;6.430;2022-10-04T11:47:53;100619.78;;;38.80;19.57
19286;BME280;9776;50.798;6.430;2022-10-04T11:50:35;100619.13;;;39.21;19.00
19286;BME280;9776;50.798;6.430;2022-10-04T11:56:28;100620.53;;;40.18;17.92
19286;BME280;9776;50.798;6.430;2022-10-04T11:59:13;100611.56;;;40.54;17.61
19286;BME280;9776;50.798;6.430;2022-10-04T12:05:27;100613.22;;;38.47;19.39
19286;BME280;9776;50.798;6.430;2022-10-04T12:08:10;100609.53;;;38.00;19.72
19286;BME280;9776;50.798;6.430;2022-10-04T12:10:47;100613.44;;;38.80;18.77
19286;BME280;9776;50.798;6.430;2022-10-04T12:13:48;100615.25;;;39.13;18.29
19286;BME280;9776;50.798;6.430;2022-10-04T12:16:39;100618.28;;;39.79;17.90
19286;BME280;9776;50.798;6.430;2022-10-04T12:19:53;100612.91;;;40.15;17.60
19286;BME280;9776;50.798;6.430;2022-10-04T12:22:39;100610.66;;;40.62;17.24
19286;BME280;9776;50.798;6.430;2022-10-04T12:25:50;100603.84;;;40.60;17.29
19286;BME280;9776;50.798;6.430;2022-10-04T12:28:40;100606.16;;;40.70;16.96
19286;BME280;9776;50.798;6.430;2022-10-04T12:31:23;100594.88;;;40.87;16.87
19286;BME280;9776;50.798;6.430;2022-10-04T12:33:59;100593.72;;;40.88;16.81
19286;BME280;9776;50.798;6.430;2022-10-04T12:37:01;100582.31;;;40.77;16.83
19286;BME280;9776;50.798;6.430;2022-10-04T12:40:04;100581.50;;;40.77;16.92
19286;BME280;9776;50.798;6.430;2022-10-04T12:42:38;100565.34;;;40.79;16.72
19286;BME280;9776;50.798;6.430;2022-10-04T12:45:27;100567.66;;;40.65;16.78
19286;BME280;9776;50.798;6.430;2022-10-04T12:48:11;100561.63;;;40.51;16.91
19286;BME280;9776;50.798;6.430;2022-10-04T12:50:48;100563.31;;;40.31;17.04
19286;BME280;9776;50.798;6.430;2022-10-04T12:53:24;100571.56;;;39.98;17.36
19286;BME280;9776;50.798;6.430;2022-10-04T12:56:05;100558.69;;;39.69;17.26
19286;BME280;9776;50.798;6.430;2022-10-04T12:58:44;100549.34;;;39.03;17.79
19286;BME280;9776;50.798;6.430;2022-10-04T13:01:21;100549.59;;;38.43;18.41
19286;BME280;9776;50.798;6.430;2022-10-04T13:04:06;100552.75;;;37.65;19.02
19286;BME280;9776;50.798;6.430;2022-10-04T13:06:41;100545.47;;;37.52;19.19
19286;BME280;9776;50.798;6.430;2022-10-04T13:09:15;100542.16;;;37.15;19.11
19286;BME280;9776;50.798;6.430;2022-10-04T13:11:58;100543.31;;;36.44;19.45
19286;BME280;9776;50.798;6.430;2022-10-04T13:14:38;100547.72;;;35.78;20.21
19286;BME280;9776;50.798;6.430;2022-10-04T13:17:16;100544.47;;;34.72;21.22
19286;BME280;9776;50.798;6.430;2022-10-04T13:19:52;100551.63;;;33.58;22.21
19286;BME280;9776;50.798;6.430;2022-10-04T13:22:39;100542.31;;;32.12;23.78
19286;BME280;9776;50.798;6.430;2022-10-04T13:25:22;100541.63;;;30.88;24.91
19286;BME280;9776;50.798;6.430;2022-10-04T13:27:56;100534.13;;;29.84;26.22
19286;BME280;9776;50.798;6.430;2022-10-04T13:30:28;100537.91;;;29.01;27.67
19286;BME280;9776;50.798;6.430;2022-10-04T13:33:03;100528.25;;;28.31;28.04
19286;BME280;9776;50.798;6.430;2022-10-04T13:35:41;100525.94;;;27.54;29.22
19286;BME280;9776;50.798;6.430;2022-10-04T13:38:34;100537.09;;;26.93;29.85
19286;BME280;9776;50.798;6.430;2022-10-04T13:41:22;100536.91;;;26.61;30.40
19286;BME280;9776;50.798;6.430;2022-10-04T13:44:33;100526.47;;;26.15;31.11
19286;BME280;9776;50.798;6.430;2022-10-04T13:47:18;100524.97;;;26.07;31.43
19286;BME280;9776;50.798;6.430;2022-10-04T13:50:02;100523.41;;;25.94;31.49
19286;BME280;9776;50.798;6.430;2022-10-04T13:52:42;100520.53;;;25.68;31.79
19286;BME280;9776;50.798;6.430;2022-10-04T13:55:34;100514.28;;;25.39;31.97
19286;BME280;9776;50.798;6.430;2022-10-04T13:58:33;100510.81;;;25.27;32.16
19286;BME280;9776;50.798;6.430;2022-10-04T14:01:26;100499.34;;;25.08;32.44
19286;BME280;9776;50.798;6.430;2022-10-04T14:04:12;100511.66;;;24.88;32.96
19286;BME280;9776;50.798;6.430;2022-10-04T14:07:10;100496.13;;;24.71;33.11
19286;BME280;9776;50.798;6.430;2022-10-04T14:10:13;100498.28;;;24.58;33.56
19286;BME280;9776;50.798;6.430;2022-10-04T14:16:08;100487.16;;;24.31;34.13
19286;BME280;9776;50.798;6.430;2022-10-04T14:19:00;100476.56;;;24.06;34.58
19286;BME280;9776;50.798;6.430;2022-10-04T14:21:50;100482.16;;;23.82;35.12
19286;BME280;9776;50.798;6.430;2022-10-04T14:24:56;100484.25;;;23.38;35.76
19286;BME280;9776;50.798;6.430;2022-10-04T14:30:50;100479.25;;;23.42;35.69
19286;BME280;9776;50.798;6.430;2022-10-04T14:33:45;100481.66;;;23.32;35.99
19286;BME280;9776;50.798;6.430;2022-10-04T14:36:30;100481.66;;;23.32;36.06
19286;BME280;9776;50.798;6.430;2022-10-04T14:39:28;100480.09;;;23.24;36.26
19286;BME280;9776;50.798;6.430;2022-10-04T14:45:12;100480.47;;;23.28;36.48
19286;BME280;9776;50.798;6.430;2022-10-04T14:48:13;100482.66;;;23.19;36.50
19286;BME280;9776;50.798;6.430;2022-10-04T14:50:53;100477.72;;;23.16;36.67
19286;BME280;9776;50.798;6.430;2022-10-04T14:53:30;100482.97;;;23.11;36.75
19286;BME280;9776;50.798;6.430;2022-10-04T14:59:06;100479.53;;;23.04;37.19
19286;BME280;9776;50.798;6.430;2022-10-04T15:01:45;100472.53;;;23.03;37.33
19286;BME280;9776;50.798;6.430;2022-10-04T15:04:35;100464.28;;;22.98;37.32
19286;BME280;9776;50.798;6.430;2022-10-04T15:07:15;100462.22;;;22.82;37.50
19286;BME280;9776;50.798;6.430;2022-10-04T15:09:51;100457.03;;;22.80;37.50